Time;durP1;ratioP1;P1;durP2;ratioP2;P2;SDS_P1;SDS_P2;PMS_P1;PMS_P2;Temp;Humidity;BMP_temperature;BMP_pressure;BME280_temperature;BME280_humidity;BME280_pressure;Samples;Min_cycle;Max_cycle;Signal;HPM_P1;HPM_P2
2021/12/10 00:01:58;;;;;;;5.03;1.77;;;;;;;0.23;100.00;93456.53;5034184;28;20211;-73
2021/12/10 00:04:29;;;;;;;4.97;1.73;;;;;;;0.08;100.00;93458.13;5036075;28;20272;-73
2021/12/10 00:07:03;;;;;;;4.53;1.70;;;;;;;0.11;100.00;93458.03;5035384;28;20191;-73
2021/12/10 00:09:33;;;;;;;5.60;1.80;;;;;;;-0.04;100.00;93441.56;5050994;28;20198;-73
2021/12/10 00:12:12;;;;;;;3.67;1.30;;;;;;;-0.05;100.00;93445.41;5047373;28;20197;-73
2021/12/10 00:14:38;;;;;;;2.50;1.27;;;;;;;-0.02;100.00;93449.19;5051711;28;20206;-73
2021/12/10 00:17:07;;;;;;;4.43;1.50;;;;;;;-0.03;100.00;93432.31;5045564;28;20232;-73
2021/12/10 00:19:56;;;;;;;3.30;1.70;;;;;;;0.27;100.00;93422.31;5052183;28;20209;-73
2021/12/10 00:22:40;;;;;;;6.00;1.57;;;;;;;0.15;100.00;93423.78;5053659;28;20229;-73
2021/12/10 00:25:09;;;;;;;5.13;1.40;;;;;;;0.11;100.00;93411.63;5043988;28;20253;-73
2021/12/10 00:27:35;;;;;;;5.10;1.30;;;;;;;0.17;100.00;93418.72;5049927;28;20273;-73
2021/12/10 00:30:11;;;;;;;2.50;1.23;;;;;;;-0.03;100.00;93402.81;5044922;28;20245;-73
2021/12/10 00:32:43;;;;;;;6.23;2.40;;;;;;;0.08;100.00;93397.16;5045682;28;20194;-74
2021/12/10 00:35:19;;;;;;;6.27;2.23;;;;;;;0.15;100.00;93405.00;5043994;28;20214;-73
2021/12/10 00:37:44;;;;;;;6.10;2.40;;;;;;;0.15;100.00;93386.22;5038336;28;20360;-73
2021/12/10 00:40:14;;;;;;;3.10;1.70;;;;;;;0.30;100.00;93379.25;5051025;28;20875;-73
2021/12/10 00:42:40;;;;;;;5.77;1.70;;;;;;;0.39;100.00;93379.34;5049017;28;20226;-73
2021/12/10 00:45:09;;;;;;;4.87;1.60;;;;;;;0.28;100.00;93380.84;5051905;28;20217;-72
2021/12/10 00:47:36;;;;;;;4.90;2.10;;;;;;;0.25;100.00;93361.00;5042012;28;20191;-73
2021/12/10 00:50:04;;;;;;;4.83;1.90;;;;;;;0.19;100.00;93367.34;5032496;28;20187;-73
2021/12/10 00:52:30;;;;;;;4.53;1.87;;;;;;;-0.08;100.00;93356.97;5049656;28;20194;-72
2021/12/10 00:54:56;;;;;;;7.37;1.80;;;;;;;-0.01;100.00;93360.22;5048755;28;20276;-73
2021/12/10 00:57:22;;;;;;;4.67;1.80;;;;;;;0.08;100.00;93356.13;5033071;28;20559;-72
2021/12/10 00:59:49;;;;;;;3.37;1.70;;;;;;;0.18;100.00;93350.47;5030847;28;20301;-73
2021/12/10 01:02:19;;;;;;;4.40;1.40;;;;;;;0.15;100.00;93347.88;5048977;28;20222;-73
2021/12/10 01:04:49;;;;;;;5.10;1.60;;;;;;;-0.07;100.00;93343.13;5025665;28;20239;-73
2021/12/10 01:07:19;;;;;;;4.17;1.40;;;;;;;-0.09;100.00;93356.25;5048560;28;20225;-73
2021/12/10 01:09:51;;;;;;;2.17;1.40;;;;;;;-0.48;100.00;93337.81;5035819;28;20217;-73
2021/12/10 01:12:25;;;;;;;5.80;1.50;;;;;;;-0.40;100.00;93339.09;5037374;28;20204;-73
2021/12/10 01:15:22;;;;;;;3.70;1.43;;;;;;;-0.62;100.00;93337.41;5045746;28;20297;-73
2021/12/10 01:28:56;;;;;;;4.47;1.40;;;;;;;-0.34;100.00;93307.16;5033110;28;20191;-73
2021/12/10 01:31:22;;;;;;;2.10;1.20;;;;;;;-0.33;100.00;93293.31;5047956;28;20608;-73
2021/12/10 01:33:51;;;;;;;6.97;2.17;;;;;;;-0.32;100.00;93291.38;5051226;28;20202;-73
2021/12/10 01:36:18;;;;;;;4.33;1.80;;;;;;;-0.67;100.00;93285.09;5029516;28;20313;-73
2021/12/10 01:38:46;;;;;;;4.97;1.80;;;;;;;-0.69;100.00;93286.69;5041718;28;20203;-73
2021/12/10 01:41:16;;;;;;;8.47;1.50;;;;;;;-0.73;100.00;93269.97;5045405;28;20221;-73
2021/12/10 01:43:43;;;;;;;4.50;1.73;;;;;;;-0.71;100.00;93265.66;5044517;28;20219;-73
2021/12/10 01:46:13;;;;;;;5.90;1.50;;;;;;;-0.84;100.00;93266.81;5041769;28;20202;-73
2021/12/10 01:48:50;;;;;;;3.17;1.33;;;;;;;-0.86;100.00;93251.16;5039265;28;20205;-73
2021/12/10 01:51:20;;;;;;;5.37;1.47;;;;;;;-0.89;100.00;93257.38;5040153;28;20264;-73
2021/12/10 01:53:48;;;;;;;3.33;1.50;;;;;;;-0.97;100.00;93248.03;5061149;28;20208;-73
2021/12/10 01:56:18;;;;;;;5.90;1.40;;;;;;;-1.09;100.00;93243.38;5045578;28;20210;-73
2021/12/10 01:58:45;;;;;;;5.40;1.50;;;;;;;-1.19;100.00;93235.63;5048368;28;20182;-73
2021/12/10 02:01:16;;;;;;;2.63;1.43;;;;;;;-1.12;100.00;93230.81;5044936;28;20214;-72
2021/12/10 02:03:44;;;;;;;3.10;1.60;;;;;;;-1.07;100.00;93216.94;5031988;28;20219;-72
2021/12/10 02:06:10;;;;;;;2.57;1.33;;;;;;;-1.03;100.00;93214.91;5031696;28;20198;-72
2021/12/10 02:08:37;;;;;;;2.87;1.53;;;;;;;-1.07;100.00;93210.81;5031667;28;20187;-73
2021/12/10 02:11:04;;;;;;;3.00;1.53;;;;;;;-1.11;100.00;93213.59;5031876;28;20286;-73
2021/12/10 02:13:30;;;;;;;3.00;1.33;;;;;;;-1.23;100.00;93201.66;5043941;28;20187;-73
2021/12/10 02:15:56;;;;;;;2.90;1.50;;;;;;;-1.18;100.00;93194.28;5029759;28;20190;-73
2021/12/10 02:18:22;;;;;;;5.93;1.63;;;;;;;-1.05;100.00;93179.75;5033124;28;20261;-73
2021/12/10 02:21:09;;;;;;;2.43;1.40;;;;;;;-1.29;100.00;93171.22;5047761;28;20199;-72
2021/12/10 02:23:42;;;;;;;2.70;1.33;;;;;;;-1.41;100.00;93171.91;5056250;28;20223;-73
2021/12/10 02:26:10;;;;;;;5.37;1.40;;;;;;;-1.35;100.00;93164.91;5035544;28;20191;-73
2021/12/10 02:28:36;;;;;;;3.40;1.40;;;;;;;-1.45;100.00;93152.56;5030046;28;20202;-72
2021/12/10 02:31:04;;;;;;;3.73;1.00;;;;;;;-1.48;100.00;93141.94;5030625;28;20191;-73
2021/12/10 02:33:30;;;;;;;3.37;1.50;;;;;;;-1.22;100.00;93146.16;5036499;28;20199;-73
2021/12/10 02:35:57;;;;;;;3.53;1.33;;;;;;;-1.15;100.00;93139.88;5038365;28;20214;-73
2021/12/10 02:38:23;;;;;;;2.03;1.07;;;;;;;-1.09;100.00;93132.81;5032155;28;20202;-73
2021/12/10 02:40:51;;;;;;;1.53;1.10;;;;;;;-1.30;100.00;93123.44;5034914;28;20194;-72
2021/12/10 02:43:19;;;;;;;7.07;1.30;;;;;;;-1.13;100.00;93119.53;5040002;28;20261;-73
2021/12/10 02:45:48;;;;;;;2.80;1.13;;;;;;;-1.23;100.00;93113.31;5030922;28;20191;-73
2021/12/10 02:48:14;;;;;;;1.40;1.13;;;;;;;-1.33;100.00;93105.56;5038980;28;20276;-73
2021/12/10 02:50:43;;;;;;;3.80;1.47;;;;;;;-1.53;100.00;93099.63;5048652;28;20183;-73
2021/12/10 02:53:11;;;;;;;4.60;1.87;;;;;;;-1.48;100.00;93107.13;5046987;28;20189;-73
2021/12/10 02:55:37;;;;;;;4.43;1.37;;;;;;;-1.60;100.00;93089.88;5050673;28;20259;-73
2021/12/10 02:58:09;;;;;;;4.23;1.30;;;;;;;-1.48;100.00;93091.81;5048507;28;20206;-72
2021/12/10 03:00:42;;;;;;;2.03;1.10;;;;;;;-1.45;100.00;93090.22;5047439;28;20201;-73
2021/12/10 03:03:07;;;;;;;2.63;1.10;;;;;;;-1.97;100.00;93084.38;5046662;28;20207;-73
2021/12/10 03:05:33;;;;;;;4.03;1.33;;;;;;;-2.04;100.00;93084.56;5038550;28;20267;-73
2021/12/10 03:07:59;;;;;;;2.63;1.23;;;;;;;-1.72;100.00;93082.56;5045918;28;20632;-73
2021/12/10 03:10:29;;;;;;;1.30;1.20;;;;;;;-1.59;100.00;93071.88;5051089;28;20693;-73
2021/12/10 03:12:55;;;;;;;4.73;1.50;;;;;;;-1.56;100.00;93060.34;5056995;28;20186;-73
2021/12/10 03:15:24;;;;;;;1.23;0.90;;;;;;;-1.73;100.00;93062.31;5028459;28;20219;-73
2021/12/10 03:17:50;;;;;;;1.80;1.00;;;;;;;-1.77;100.00;93042.19;5020574;28;20233;-73
2021/12/10 03:20:23;;;;;;;1.10;0.93;;;;;;;-1.80;100.00;93032.34;5045830;28;20195;-73
2021/12/10 03:22:49;;;;;;;1.17;0.90;;;;;;;-1.78;100.00;93020.03;5053376;28;20206;-72
2021/12/10 03:25:17;;;;;;;1.97;1.07;;;;;;;-1.56;100.00;93028.22;5041865;28;20216;-73
2021/12/10 03:27:45;;;;;;;2.33;1.17;;;;;;;-1.86;100.00;93023.31;5052540;28;20197;-73
2021/12/10 03:30:15;;;;;;;3.20;1.10;;;;;;;-2.06;100.00;93030.75;5038915;28;20203;-73
2021/12/10 03:32:41;;;;;;;1.77;1.30;;;;;;;-1.87;100.00;93049.34;5022359;28;20203;-72
2021/12/10 03:35:13;;;;;;;4.17;1.60;;;;;;;-1.90;100.00;93036.06;5034539;28;20207;-72
2021/12/10 03:37:41;;;;;;;2.03;0.90;;;;;;;-2.18;100.00;93024.19;5046890;28;20257;-73
2021/12/10 03:40:09;;;;;;;1.90;1.50;;;;;;;-2.17;100.00;93019.59;5036781;28;20278;-73
2021/12/10 03:42:35;;;;;;;1.43;1.33;;;;;;;-2.31;100.00;93027.97;5033248;28;20233;-73
2021/12/10 03:45:02;;;;;;;3.07;1.40;;;;;;;-2.17;100.00;93014.25;5035046;28;20242;-73
2021/12/10 03:47:29;;;;;;;4.13;1.83;;;;;;;-2.26;100.00;93012.19;5047969;28;20198;-73
2021/12/10 03:49:55;;;;;;;3.23;1.53;;;;;;;-2.23;100.00;93013.25;5042047;28;20219;-73
2021/12/10 03:52:20;;;;;;;3.30;1.90;;;;;;;-2.19;100.00;92998.66;5053663;28;20221;-73
2021/12/10 03:54:47;;;;;;;3.43;2.00;;;;;;;-2.16;100.00;93005.81;5053129;28;20234;-73
2021/12/10 03:57:13;;;;;;;3.23;1.80;;;;;;;-2.13;100.00;92996.94;5049170;28;20198;-73
2021/12/10 03:59:39;;;;;;;1.63;1.30;;;;;;;-2.13;100.00;92983.56;5032139;28;20201;-73
2021/12/10 04:02:07;;;;;;;2.33;1.50;;;;;;;-2.35;100.00;92979.97;5031940;28;20238;-73
2021/12/10 04:04:40;;;;;;;2.60;1.50;;;;;;;-2.38;100.00;92969.38;5035505;28;20297;-72
2021/12/10 04:07:10;;;;;;;2.33;0.93;;;;;;;-2.36;100.00;92967.03;5049424;28;20260;-73
2021/12/10 04:09:36;;;;;;;3.03;1.10;;;;;;;-2.33;100.00;92972.28;5036212;28;20195;-73
2021/12/10 04:12:03;;;;;;;4.27;1.43;;;;;;;-2.38;100.00;92956.75;5032726;28;20179;-73
2021/12/10 04:14:29;;;;;;;4.03;1.33;;;;;;;-2.18;100.00;92959.28;5046487;28;20276;-73
2021/12/10 04:16:56;;;;;;;3.03;1.30;;;;;;;-2.20;100.00;92964.28;5031391;28;20594;-73
2021/12/10 04:19:26;;;;;;;2.00;1.17;;;;;;;-2.30;100.00;92952.72;5035081;28;20194;-73
2021/12/10 04:21:56;;;;;;;1.53;1.20;;;;;;;-2.18;100.00;92944.00;5056318;28;20284;-72
2021/12/10 04:24:24;;;;;;;5.00;1.53;;;;;;;-2.28;100.00;92945.03;5050485;28;20213;-72
2021/12/10 04:26:52;;;;;;;3.07;1.30;;;;;;;-2.17;100.00;92939.41;5047504;28;20203;-73
2021/12/10 04:29:20;;;;;;;2.90;1.40;;;;;;;-2.51;100.00;92940.69;5039675;28;20217;-73
2021/12/10 04:31:51;;;;;;;1.40;1.23;;;;;;;-2.37;100.00;92944.88;5031143;28;20191;-73
2021/12/10 04:34:18;;;;;;;1.50;1.33;;;;;;;-2.61;100.00;92944.38;5037820;28;20218;-73
2021/12/10 04:36:44;;;;;;;1.67;1.30;;;;;;;-2.73;100.00;92942.41;5042945;28;20187;-72
2021/12/10 04:39:11;;;;;;;1.97;1.27;;;;;;;-2.74;100.00;92942.81;5034183;28;20333;-73
2021/12/10 04:41:37;;;;;;;1.80;1.20;;;;;;;-2.56;100.00;92938.50;5032419;28;20218;-73
2021/12/10 04:44:03;;;;;;;1.43;1.20;;;;;;;-2.72;100.00;92921.78;5032825;28;20226;-72
2021/12/10 04:46:29;;;;;;;2.80;1.10;;;;;;;-2.65;100.00;92922.34;5027035;28;20285;-72
2021/12/10 04:49:03;;;;;;;1.27;1.00;;;;;;;-2.63;100.00;92895.22;5049547;28;20293;-72
2021/12/10 04:51:33;;;;;;;1.10;1.00;;;;;;;-2.80;100.00;92885.75;5046965;28;20256;-73
2021/12/10 04:54:00;;;;;;;2.60;1.60;;;;;;;-2.95;100.00;92884.59;5059831;28;20671;-73
2021/12/10 04:56:28;;;;;;;1.33;1.17;;;;;;;-3.04;100.00;92889.81;5035160;28;20282;-72
2021/12/10 04:58:54;;;;;;;2.03;1.40;;;;;;;-3.12;100.00;92897.25;5032004;28;20191;-73
2021/12/10 05:01:20;;;;;;;2.80;1.40;;;;;;;-3.14;100.00;92906.84;5031473;28;20566;-72
2021/12/10 05:03:46;;;;;;;1.50;1.40;;;;;;;-3.23;100.00;92894.09;5045205;28;20218;-72
2021/12/10 05:06:12;;;;;;;1.90;1.53;;;;;;;-3.16;100.00;92877.91;5051793;28;20206;-73
2021/12/10 05:08:39;;;;;;;1.57;1.10;;;;;;;-3.24;100.00;92883.84;5052334;28;20201;-73
2021/12/10 05:11:07;;;;;;;4.83;1.03;;;;;;;-3.02;100.00;92871.47;5051451;28;20205;-73
2021/12/10 05:13:35;;;;;;;3.93;1.30;;;;;;;-3.05;100.00;92864.28;5034715;28;20226;-72
2021/12/10 05:16:01;;;;;;;1.90;1.47;;;;;;;-2.97;100.00;92865.63;5030937;28;20187;-73
2021/12/10 05:18:35;;;;;;;3.03;1.53;;;;;;;-2.97;100.00;92858.34;5050082;28;20260;-73
2021/12/10 05:21:02;;;;;;;2.23;1.80;;;;;;;-2.86;100.00;92852.72;5042169;28;20651;-73
2021/12/10 05:23:28;;;;;;;2.23;1.63;;;;;;;-2.90;100.00;92854.75;5045039;28;20210;-73
2021/12/10 05:25:53;;;;;;;4.37;2.40;;;;;;;-3.07;100.00;92845.28;5048777;28;20579;-73
2021/12/10 05:28:19;;;;;;;5.23;2.43;;;;;;;-2.91;100.00;92862.00;5042592;28;20198;-73
2021/12/10 05:30:47;;;;;;;2.47;1.77;;;;;;;-3.36;100.00;92847.91;5052297;28;20190;-74
2021/12/10 05:33:17;;;;;;;2.23;1.47;;;;;;;-3.35;100.00;92852.06;5046421;28;20220;-74
2021/12/10 05:35:44;;;;;;;1.67;1.10;;;;;;;-3.21;100.00;92845.63;5043102;28;20187;-73
2021/12/10 05:38:10;;;;;;;1.77;1.20;;;;;;;-3.42;100.00;92849.59;5051226;28;20209;-73
2021/12/10 05:40:36;;;;;;;1.63;1.00;;;;;;;-3.37;100.00;92846.41;5040970;28;20191;-73
2021/12/10 05:43:01;;;;;;;3.90;1.20;;;;;;;-3.59;100.00;92837.41;5038941;28;20586;-73
2021/12/10 05:45:27;;;;;;;3.30;1.07;;;;;;;-3.36;100.00;92833.81;5038040;28;20223;-73
2021/12/10 05:47:53;;;;;;;1.43;1.00;;;;;;;-3.31;100.00;92835.97;5044837;28;20187;-73
2021/12/10 05:50:21;;;;;;;1.23;1.00;;;;;;;-3.21;100.00;92810.94;5031757;28;20202;-73
2021/12/10 05:52:47;;;;;;;1.53;1.03;;;;;;;-3.08;100.00;92817.84;5053126;28;20187;-73
2021/12/10 05:55:14;;;;;;;1.90;0.93;;;;;;;-3.04;100.00;92801.72;5043692;28;20704;-74
2021/12/10 05:57:41;;;;;;;1.90;1.13;;;;;;;-2.98;100.00;92810.69;5040395;28;20190;-73
2021/12/10 06:00:11;;;;;;;1.47;1.00;;;;;;;-3.04;100.00;92799.06;5032625;28;20277;-73
2021/12/10 06:02:37;;;;;;;0.80;0.80;;;;;;;-2.98;100.00;92797.34;5035889;28;20215;-73
2021/12/10 06:05:04;;;;;;;2.67;1.00;;;;;;;-2.96;100.00;92784.34;5040581;28;20210;-73
2021/12/10 06:07:30;;;;;;;1.37;0.90;;;;;;;-3.05;100.00;92792.97;5029931;28;20191;-73
2021/12/10 06:09:56;;;;;;;1.83;1.07;;;;;;;-3.09;100.00;92788.91;5029843;28;20252;-73
2021/12/10 06:12:22;;;;;;;4.77;1.20;;;;;;;-3.08;100.00;92769.78;5023956;28;20187;-73
2021/12/10 06:14:47;;;;;;;3.97;1.40;;;;;;;-2.84;100.00;92763.03;5042354;28;20825;-73
2021/12/10 06:17:13;;;;;;;4.97;2.60;;;;;;;-3.10;100.00;92753.44;5030821;28;20183;-73
2021/12/10 06:19:39;;;;;;;2.60;2.20;;;;;;;-2.90;100.00;92758.63;5034858;28;20216;-73
2021/12/10 06:22:05;;;;;;;4.60;1.80;;;;;;;-2.96;100.00;92755.72;5053156;28;20231;-73
2021/12/10 06:24:31;;;;;;;3.03;2.10;;;;;;;-2.89;100.00;92760.13;5029227;28;20623;-73
2021/12/10 06:26:57;;;;;;;3.30;2.87;;;;;;;-2.68;100.00;92746.16;5051778;28;20259;-73
2021/12/10 06:29:24;;;;;;;2.67;2.20;;;;;;;-2.92;100.00;92752.97;5050221;28;20216;-73
2021/12/10 06:31:51;;;;;;;1.30;1.20;;;;;;;-2.97;100.00;92756.16;5051361;28;20194;-72
2021/12/10 06:34:16;;;;;;;3.13;1.27;;;;;;;-3.03;100.00;92752.50;5038571;28;20217;-73
2021/12/10 06:36:42;;;;;;;3.50;1.40;;;;;;;-3.20;100.00;92733.13;5040493;28;20191;-73
2021/12/10 06:39:08;;;;;;;1.73;1.30;;;;;;;-3.29;100.00;92732.97;5034032;28;20233;-73
2021/12/10 06:41:35;;;;;;;3.03;1.07;;;;;;;-3.18;100.00;92735.38;5045895;28;20210;-73
2021/12/10 06:44:04;;;;;;;2.77;2.20;;;;;;;-3.11;100.00;92725.25;5034662;28;20226;-74
2021/12/10 06:46:32;;;;;;;4.93;1.90;;;;;;;-3.20;100.00;92727.78;5047374;28;20226;-73
2021/12/10 06:48:58;;;;;;;1.40;1.30;;;;;;;-3.21;100.00;92723.63;5047069;28;20257;-73
2021/12/10 06:51:24;;;;;;;2.70;1.60;;;;;;;-3.25;100.00;92740.91;5049081;28;20442;-72
2021/12/10 06:53:50;;;;;;;4.77;2.27;;;;;;;-3.32;100.00;92723.16;5037665;28;20594;-73
2021/12/10 06:56:17;;;;;;;3.67;2.50;;;;;;;-3.20;100.00;92711.78;5028957;28;20195;-73
2021/12/10 06:58:43;;;;;;;9.13;6.97;;;;;;;-3.29;100.00;92708.97;5032461;28;20245;-73
2021/12/10 07:01:22;;;;;;;11.07;6.53;;;;;;;-3.29;100.00;92700.25;5054041;28;20201;-73
2021/12/10 07:03:48;;;;;;;6.70;3.00;;;;;;;-3.18;100.00;92696.09;5047185;28;20321;-73
2021/12/10 07:06:15;;;;;;;6.33;3.73;;;;;;;-3.19;100.00;92697.25;5045440;28;20221;-74
2021/12/10 07:08:43;;;;;;;4.47;3.57;;;;;;;-3.19;100.00;92697.25;5052816;28;20190;-73
2021/12/10 07:11:11;;;;;;;1.80;1.70;;;;;;;-3.01;100.00;92696.75;5034088;28;20234;-73
2021/12/10 07:13:39;;;;;;;10.27;6.77;;;;;;;-2.84;100.00;92688.25;5039037;28;20290;-73
2021/12/10 07:16:06;;;;;;;11.90;8.80;;;;;;;-2.90;100.00;92697.94;5038563;28;20199;-74
2021/12/10 07:18:32;;;;;;;5.70;4.13;;;;;;;-2.80;100.00;92685.47;5040090;28;20195;-74
2021/12/10 07:20:58;;;;;;;5.93;4.00;;;;;;;-2.59;100.00;92693.59;5046987;28;20197;-73
2021/12/10 07:23:24;;;;;;;5.13;3.00;;;;;;;-2.55;100.00;92677.47;5053097;28;20314;-73
2021/12/10 07:25:51;;;;;;;18.07;13.63;;;;;;;-2.60;100.00;92672.66;5053581;28;20573;-73
2021/12/10 07:28:17;;;;;;;5.20;4.30;;;;;;;-2.51;100.00;92657.47;5036819;28;20186;-73
2021/12/10 07:30:43;;;;;;;3.37;2.03;;;;;;;-2.60;100.00;92673.38;5033308;28;20236;-74
2021/12/10 07:33:09;;;;;;;4.00;2.43;;;;;;;-2.42;100.00;92672.09;5052412;28;20566;-73
2021/12/10 07:35:36;;;;;;;3.70;2.90;;;;;;;-2.43;100.00;92670.63;5050200;28;20261;-73
2021/12/10 07:38:03;;;;;;;3.37;2.30;;;;;;;-2.39;100.00;92655.22;5049434;28;20217;-73
2021/12/10 07:40:31;;;;;;;1.90;1.73;;;;;;;-2.24;100.00;92651.66;5046228;28;20261;-73
2021/12/10 07:42:57;;;;;;;2.23;1.90;;;;;;;-2.18;100.00;92641.94;5034197;28;20203;-73
2021/12/10 07:45:24;;;;;;;2.87;2.13;;;;;;;-2.32;100.00;92644.31;5038971;28;20308;-73
2021/12/10 07:47:53;;;;;;;2.43;1.83;;;;;;;-2.21;100.00;92642.78;5053804;28;20213;-73
2021/12/10 07:50:23;;;;;;;2.07;1.67;;;;;;;-2.26;100.00;92650.59;5048042;28;20190;-73
2021/12/10 07:52:54;;;;;;;2.47;1.77;;;;;;;-2.22;100.00;92640.56;5032669;28;20190;-72
2021/12/10 07:55:22;;;;;;;3.73;2.83;;;;;;;-2.26;100.00;92632.66;5050959;28;20218;-74
2021/12/10 07:57:50;;;;;;;4.57;2.97;;;;;;;-2.11;100.00;92638.28;5049515;28;20193;-73
2021/12/10 08:00:16;;;;;;;2.93;2.30;;;;;;;-1.75;100.00;92649.28;5010115;28;20190;-73
2021/12/10 08:02:42;;;;;;;4.87;2.43;;;;;;;-1.72;100.00;92622.44;5051216;28;20224;-73
2021/12/10 08:05:09;;;;;;;3.47;2.40;;;;;;;-1.59;100.00;92617.00;5052593;28;20215;-73
2021/12/10 08:07:35;;;;;;;3.50;2.30;;;;;;;-1.32;100.00;92614.50;5010927;28;20202;-73
2021/12/10 08:10:01;;;;;;;2.50;2.00;;;;;;;-1.51;100.00;92626.28;5043289;28;20190;-73
2021/12/10 08:12:26;;;;;;;4.80;2.60;;;;;;;-1.58;98.82;92597.09;5047902;28;20556;-73
2021/12/10 08:14:53;;;;;;;1.70;1.27;;;;;;;-1.58;96.61;92599.78;5045269;28;20325;-73
2021/12/10 08:17:24;;;;;;;1.67;1.30;;;;;;;-1.64;98.72;92604.94;5039983;28;20219;-73
2021/12/10 08:19:50;;;;;;;3.33;1.47;;;;;;;-1.65;98.63;92592.75;5054350;28;20193;-73
2021/12/10 08:22:16;;;;;;;1.57;1.10;;;;;;;-1.52;98.54;92587.31;5046634;28;20241;-73
2021/12/10 08:24:42;;;;;;;1.67;1.37;;;;;;;-1.32;99.48;92595.75;5056470;28;20217;-73
2021/12/10 08:27:09;;;;;;;2.47;1.30;;;;;;;-1.34;96.82;92592.81;5054699;28;20205;-73
2021/12/10 08:29:35;;;;;;;1.80;1.53;;;;;;;-1.16;100.00;92592.13;5045668;28;20189;-73
2021/12/10 08:32:02;;;;;;;2.97;1.60;;;;;;;-0.95;96.90;92580.63;5051482;28;20174;-73
2021/12/10 08:34:29;;;;;;;1.87;1.53;;;;;;;-1.09;97.33;92592.63;5042853;28;20210;-73
2021/12/10 08:36:55;;;;;;;1.20;1.10;;;;;;;-1.02;95.97;92597.72;5051854;28;20186;-73
2021/12/10 08:39:21;;;;;;;1.63;1.30;;;;;;;-0.91;97.44;92608.00;5053116;28;20182;-73
2021/12/10 08:41:47;;;;;;;3.00;1.27;;;;;;;-1.14;94.64;92587.09;5048738;28;20214;-73
2021/12/10 08:44:13;;;;;;;1.57;1.20;;;;;;;-0.99;98.42;92586.13;5043483;28;20212;-73
2021/12/10 08:46:41;;;;;;;1.77;1.67;;;;;;;-0.84;97.86;92589.75;5052185;28;20202;-73
2021/12/10 08:49:08;;;;;;;3.13;1.70;;;;;;;-0.85;98.67;92585.59;5036305;28;20221;-73
2021/12/10 08:51:44;;;;;;;1.30;1.20;;;;;;;-0.87;97.33;92592.56;5061594;28;20237;-73
2021/12/10 08:54:12;;;;;;;1.57;1.20;;;;;;;-0.73;97.89;92578.63;5055384;28;20691;-73
2021/12/10 08:56:40;;;;;;;1.97;1.10;;;;;;;-0.63;99.11;92583.56;5048303;28;20293;-73
2021/12/10 08:59:08;;;;;;;1.73;1.07;;;;;;;-0.52;96.60;92570.50;5052057;28;20210;-73
2021/12/10 09:01:39;;;;;;;2.13;1.30;;;;;;;-0.40;97.25;92563.53;5030602;28;20194;-73
2021/12/10 09:04:06;;;;;;;1.73;1.40;;;;;;;-0.12;96.78;92575.78;5050594;28;20304;-73
2021/12/10 09:06:34;;;;;;;2.00;1.17;;;;;;;-0.20;90.59;92569.19;5047930;28;20197;-72
2021/12/10 09:09:03;;;;;;;1.47;1.03;;;;;;;-0.23;91.22;92562.81;5051748;28;20198;-73
2021/12/10 09:11:31;;;;;;;1.80;1.07;;;;;;;-0.31;89.16;92558.19;5015782;28;20194;-73
2021/12/10 09:13:57;;;;;;;2.10;1.00;;;;;;;-0.41;87.91;92560.09;5047800;28;20221;-73
2021/12/10 09:16:26;;;;;;;2.97;1.33;;;;;;;-0.51;91.63;92561.25;5044493;28;20605;-72
2021/12/10 09:18:57;;;;;;;2.40;1.50;;;;;;;-0.57;90.68;92549.66;5052562;28;20222;-73
2021/12/10 09:21:24;;;;;;;5.33;3.17;;;;;;;-0.47;91.17;92556.50;5033188;28;20248;-73
2021/12/10 09:23:53;;;;;;;6.23;3.70;;;;;;;-0.41;87.89;92556.69;5055210;28;20213;-73
2021/12/10 09:26:20;;;;;;;4.03;2.33;;;;;;;-0.32;87.32;92551.31;5048578;28;20201;-73
2021/12/10 09:28:47;;;;;;;3.47;2.27;;;;;;;-0.08;86.21;92555.66;5046781;28;20191;-72
2021/12/10 09:31:14;;;;;;;3.37;2.63;;;;;;;-0.20;86.40;92551.19;5048803;28;20256;-73
2021/12/10 09:33:42;;;;;;;2.40;2.20;;;;;;;0.16;85.02;92538.97;5032127;28;20219;-73
2021/12/10 09:36:09;;;;;;;2.90;2.00;;;;;;;0.48;85.99;92549.06;5031994;28;20203;-73
2021/12/10 09:38:35;;;;;;;3.87;1.67;;;;;;;0.74;86.75;92542.91;5032376;28;20206;-72
2021/12/10 09:41:05;;;;;;;2.00;1.40;;;;;;;0.96;84.68;92543.44;5031317;28;20249;-73
2021/12/10 09:43:33;;;;;;;1.60;1.43;;;;;;;1.15;83.81;92534.09;5033865;28;20215;-73
2021/12/10 09:46:00;;;;;;;1.97;1.20;;;;;;;1.36;83.49;92529.66;5042102;28;20228;-73
2021/12/10 09:48:27;;;;;;;4.50;1.30;;;;;;;1.50;79.23;92518.25;5051301;28;20244;-73
2021/12/10 09:51:01;;;;;;;2.23;1.40;;;;;;;1.43;79.12;92520.50;5032802;28;20217;-73
2021/12/10 09:53:29;;;;;;;2.17;1.20;;;;;;;1.50;79.30;92520.19;5052900;28;20194;-73
2021/12/10 09:55:56;;;;;;;1.50;1.10;;;;;;;1.26;79.84;92514.78;5053086;28;20190;-73
2021/12/10 09:58:25;;;;;;;3.87;1.47;;;;;;;1.39;79.22;92501.88;5044168;28;20237;-73
2021/12/10 10:01:06;;;;;;;2.40;1.30;;;;;;;1.33;80.42;92503.69;5046448;28;20193;-72
2021/12/10 10:03:35;;;;;;;1.67;1.03;;;;;;;1.27;79.23;92482.06;5059238;28;20214;-73
2021/12/10 10:06:02;;;;;;;1.93;1.30;;;;;;;1.48;78.44;92476.88;5041284;28;20194;-73
2021/12/10 10:08:29;;;;;;;1.80;1.20;;;;;;;1.83;79.54;92472.44;5042785;28;20240;-74
2021/12/10 10:11:06;;;;;;;1.77;1.23;;;;;;;1.76;78.62;92457.41;5045131;28;20187;-73
2021/12/10 10:13:37;;;;;;;1.87;1.30;;;;;;;1.76;79.91;92440.50;5034067;28;20202;-73
2021/12/10 10:16:04;;;;;;;2.20;1.23;;;;;;;2.03;79.10;92441.03;5031239;28;20233;-73
2021/12/10 10:18:33;;;;;;;2.67;1.23;;;;;;;2.12;77.48;92438.25;5025205;28;20314;-73
2021/12/10 10:21:04;;;;;;;1.10;0.90;;;;;;;1.95;75.74;92426.44;5043615;28;20201;-73
2021/12/10 10:23:29;;;;;;;1.67;1.00;;;;;;;2.03;76.89;92432.97;5063873;28;20285;-74
2021/12/10 10:25:59;;;;;;;1.90;1.00;;;;;;;1.71;76.13;92423.06;5053032;28;20281;-74
2021/12/10 10:28:25;;;;;;;1.80;1.30;;;;;;;2.07;74.80;92432.78;5048101;28;20289;-73
2021/12/10 10:30:59;;;;;;;2.27;1.57;;;;;;;2.09;76.64;92425.72;5049851;28;20197;-74
2021/12/10 10:33:28;;;;;;;1.97;1.77;;;;;;;2.27;79.42;92454.41;5043581;28;20187;-74
2021/12/10 10:35:57;;;;;;;1.60;1.50;;;;;;;1.72;75.29;92437.25;5034638;28;20190;-73
2021/12/10 10:38:25;;;;;;;1.40;1.30;;;;;;;1.88;75.78;92442.22;5037905;28;20226;-73
2021/12/10 10:40:57;;;;;;;2.03;1.10;;;;;;;1.48;76.36;92425.81;5051651;28;20272;-74
2021/12/10 10:43:25;;;;;;;2.30;1.10;;;;;;;1.84;77.42;92428.19;5054144;28;20222;-74
2021/12/10 10:45:52;;;;;;;1.10;1.00;;;;;;;1.98;75.65;92422.09;5043295;28;20201;-74
2021/12/10 10:48:19;;;;;;;2.40;1.30;;;;;;;2.07;77.22;92436.19;5034448;28;20198;-73
2021/12/10 10:50:54;;;;;;;1.83;1.30;;;;;;;2.16;76.36;92427.28;5047814;28;20241;-73
2021/12/10 10:53:24;;;;;;;1.83;1.37;;;;;;;2.33;75.66;92422.94;5061460;28;20261;-73
2021/12/10 10:56:08;;;;;;;2.17;1.50;;;;;;;2.47;76.76;92422.94;5050063;28;20222;-74
2021/12/10 10:58:42;;;;;;;2.43;1.63;;;;;;;2.60;76.81;92403.06;5049967;28;20186;-74
2021/12/10 11:01:28;;;;;;;3.30;1.63;;;;;;;2.79;75.43;92398.91;5055064;28;20229;-74
2021/12/10 11:04:12;;;;;;;1.40;1.30;;;;;;;2.79;77.61;92409.69;5047971;28;20287;-74
2021/12/10 11:06:46;;;;;;;2.43;1.50;;;;;;;2.96;75.74;92403.34;5047569;28;20198;-74
2021/12/10 11:09:21;;;;;;;2.93;1.60;;;;;;;2.63;74.46;92405.53;5062025;28;20187;-74
2021/12/10 11:12:07;;;;;;;1.30;1.20;;;;;;;2.33;74.29;92396.00;5034826;28;20194;-73
2021/12/10 11:14:37;;;;;;;1.40;1.30;;;;;;;2.28;75.37;92399.34;5046850;28;20222;-74
2021/12/10 11:17:08;;;;;;;2.40;1.27;;;;;;;2.17;77.05;92391.09;5041299;28;20178;-74
2021/12/10 11:19:34;;;;;;;2.27;1.33;;;;;;;1.92;75.84;92389.69;5048225;28;20183;-73
2021/12/10 11:22:08;;;;;;;1.70;1.10;;;;;;;1.90;76.95;92389.41;5054328;28;20218;-74
2021/12/10 11:24:38;;;;;;;2.57;1.33;;;;;;;2.11;75.54;92387.56;5054808;28;20577;-73
2021/12/10 11:27:09;;;;;;;1.40;1.30;;;;;;;2.17;75.09;92381.06;5041352;28;20657;-73
2021/12/10 11:29:53;;;;;;;2.40;1.30;;;;;;;2.16;76.61;92374.19;5034805;28;20184;-73
2021/12/10 11:32:27;;;;;;;2.30;1.20;;;;;;;2.27;77.39;92376.34;5034002;28;20187;-74
2021/12/10 11:35:16;;;;;;;3.53;1.13;;;;;;;1.68;76.68;92370.19;5047639;28;20224;-74
2021/12/10 11:37:56;;;;;;;1.23;1.13;;;;;;;2.21;77.00;92359.34;5037340;28;20219;-73
2021/12/10 11:40:21;;;;;;;1.80;1.03;;;;;;;2.31;76.48;92364.16;5035083;28;20195;-74
2021/12/10 11:42:54;;;;;;;1.37;1.10;;;;;;;2.12;76.04;92362.88;5033986;28;20207;-73
2021/12/10 11:45:41;;;;;;;1.87;1.30;;;;;;;2.60;78.08;92357.25;5040827;28;20222;-73
2021/12/10 11:48:12;;;;;;;1.20;1.10;;;;;;;2.70;76.79;92353.97;5048369;28;20229;-73